Terminal Aerodrome Forecast
Issued by NWS

Current Version | Previous Version | Text Only | Print | Product List | Glossary On
Versions: 1 2 3 4 5 6 7 8 9 10 11 12 13
000
FTUS46 KMFR 180528
TAFLMT
TAF
KLMT 180528Z 1806/1906 33005KT P6SM SKC
     FM181600 33008KT P6SM SKC
     FM182200 34011G20KT P6SM SKC
     FM190400 VRB04KT P6SM SKC=

USA.gov is the U.S. government's official web portal to all federal, state and local government web resources and services.